Time;durP1;ratioP1;P1;durP2;ratioP2;P2;SDS_P1;SDS_P2;PMS_P1;PMS_P2;Temp;Humidity;BMP_temperature;BMP_pressure;BME280_temperature;BME280_humidity;BME280_pressure;Samples;Min_cycle;Max_cycle;Signal;HPM_P1;HPM_P2
2022/10/18 00:00:27;;;;;;;2.72;1.98;;;;;;;9.20;89.06;101282.53;5072215;28;20044;-72
2022/10/18 00:02:53;;;;;;;2.30;1.80;;;;;;;9.21;88.92;101284.19;5049936;28;20078;-73
2022/10/18 00:05:18;;;;;;;2.90;1.75;;;;;;;9.21;89.38;101278.72;5063701;28;20040;-72
2022/10/18 00:07:44;;;;;;;1.80;1.42;;;;;;;9.13;89.19;101268.16;5078270;28;20036;-71
2022/10/18 00:10:12;;;;;;;4.57;1.70;;;;;;;9.16;89.13;101270.41;5066907;28;20119;-72
2022/10/18 00:12:37;;;;;;;1.50;1.30;;;;;;;9.09;89.66;101264.22;5065267;28;20080;-72
2022/10/18 00:15:05;;;;;;;1.48;1.38;;;;;;;9.12;89.38;101269.22;5048544;28;20048;-69
2022/10/18 00:17:33;;;;;;;1.38;1.20;;;;;;;9.04;90.21;101261.38;5082486;28;20029;-71
2022/10/18 00:19:58;;;;;;;1.35;1.25;;;;;;;8.96;90.11;101264.44;5079167;28;20021;-70
2022/10/18 00:22:24;;;;;;;2.35;1.52;;;;;;;8.88;90.17;101261.00;5076581;28;20127;-71
2022/10/18 00:24:50;;;;;;;1.23;1.10;;;;;;;8.75;90.61;101258.47;5064565;28;20032;-73
2022/10/18 00:27:16;;;;;;;0.80;0.80;;;;;;;8.76;90.58;101265.59;5065621;28;20032;-71
2022/10/18 00:29:45;;;;;;;1.35;1.00;;;;;;;8.76;91.06;101276.50;5070999;28;20059;-72
2022/10/18 00:32:11;;;;;;;1.60;1.05;;;;;;;8.71;91.01;101273.63;5047003;28;20051;-72
2022/10/18 00:34:38;;;;;;;1.90;1.10;;;;;;;8.55;91.19;101265.03;5074545;28;20032;-71
2022/10/18 00:37:04;;;;;;;1.33;1.00;;;;;;;8.57;91.24;101273.00;5063716;28;20025;-71
2022/10/18 00:39:30;;;;;;;1.10;0.98;;;;;;;8.53;91.71;101278.09;5080834;28;20115;-71
2022/10/18 00:41:55;;;;;;;1.10;1.00;;;;;;;8.45;91.16;101272.94;5075824;28;20053;-70
2022/10/18 00:44:24;;;;;;;0.90;0.90;;;;;;;8.43;91.87;101272.34;5064484;28;20020;-71
2022/10/18 00:46:50;;;;;;;1.23;1.13;;;;;;;8.40;91.61;101283.69;5058782;28;20032;-70
2022/10/18 00:49:34;;;;;;;1.00;0.80;;;;;;;8.42;91.73;101276.09;5063380;28;20020;-71
2022/10/18 00:52:08;;;;;;;1.42;0.98;;;;;;;8.49;91.06;101298.69;5064371;28;20159;-70
2022/10/18 00:54:37;;;;;;;0.63;0.63;;;;;;;8.43;91.19;101283.22;5061387;28;20024;-73
2022/10/18 00:57:04;;;;;;;2.05;1.05;;;;;;;8.51;91.27;101290.28;5057977;28;20071;-72
2022/10/18 00:59:29;;;;;;;1.65;1.17;;;;;;;8.57;91.05;101283.91;5073401;28;20043;-72
2022/10/18 01:01:55;;;;;;;3.45;1.60;;;;;;;8.68;91.09;101295.91;5044052;28;20032;-72
2022/10/18 01:04:21;;;;;;;1.45;1.15;;;;;;;8.73;90.30;101294.16;5074947;28;20099;-71
2022/10/18 01:07:00;;;;;;;1.25;1.10;;;;;;;8.73;90.37;101298.78;5057446;28;20033;-72
2022/10/18 01:09:50;;;;;;;0.95;0.70;;;;;;;8.73;90.21;101305.06;5078765;28;20029;-71
2022/10/18 01:12:46;;;;;;;0.70;0.70;;;;;;;8.67;90.15;101307.88;5063500;28;20206;-70
2022/10/18 01:15:34;;;;;;;0.88;0.75;;;;;;;8.61;90.10;101311.53;5062652;28;20017;-71
2022/10/18 01:18:13;;;;;;;0.98;0.90;;;;;;;8.59;90.12;101319.13;5073008;28;20032;-72
2022/10/18 01:20:57;;;;;;;1.25;1.02;;;;;;;8.52;89.44;101308.31;5074051;28;20033;-72
2022/10/18 01:23:56;;;;;;;1.08;0.80;;;;;;;8.50;89.22;101311.25;5075547;28;20027;-71
2022/10/18 01:26:40;;;;;;;1.38;1.05;;;;;;;8.42;88.65;101314.28;5078457;28;20032;-72
2022/10/18 01:29:19;;;;;;;0.87;0.80;;;;;;;8.42;88.78;101308.81;5063748;28;20028;-72
2022/10/18 01:31:55;;;;;;;1.10;1.00;;;;;;;8.46;88.78;101318.25;5081845;28;20032;-72
2022/10/18 01:34:24;;;;;;;0.95;0.90;;;;;;;8.47;88.40;101319.91;5057994;28;20028;-72
2022/10/18 01:36:52;;;;;;;0.95;0.80;;;;;;;8.43;88.34;101318.66;5061605;28;20024;-72
2022/10/18 01:39:26;;;;;;;0.93;0.77;;;;;;;8.43;89.08;101326.03;5076185;28;20059;-72
2022/10/18 01:41:54;;;;;;;1.88;1.02;;;;;;;8.40;89.27;101330.03;5067209;28;20052;-72
2022/10/18 01:44:27;;;;;;;0.93;0.88;;;;;;;8.35;89.34;101329.88;5059713;28;20041;-71
2022/10/18 01:46:55;;;;;;;0.90;0.80;;;;;;;8.41;88.74;101328.97;5062491;28;20020;-73
2022/10/18 01:49:32;;;;;;;0.80;0.80;;;;;;;8.44;88.40;101327.66;5079723;28;20025;-71
2022/10/18 01:51:57;;;;;;;0.77;0.55;;;;;;;8.38;88.72;101313.06;5078943;28;20031;-72
2022/10/18 01:54:31;;;;;;;0.80;0.80;;;;;;;8.37;89.06;101322.31;5079593;28;20036;-71
2022/10/18 01:57:23;;;;;;;1.13;0.70;;;;;;;8.38;89.52;101332.13;5055886;28;20017;-72
2022/10/18 01:59:51;;;;;;;1.00;0.80;;;;;;;8.37;89.16;101338.66;5054665;28;20494;-71
2022/10/18 02:02:34;;;;;;;0.85;0.60;;;;;;;8.34;89.47;101339.97;5068119;28;20032;-72
2022/10/18 02:05:12;;;;;;;0.65;0.50;;;;;;;8.32;89.41;101342.09;5078036;28;20031;-70
2022/10/18 02:08:11;;;;;;;0.57;0.57;;;;;;;8.27;88.82;101333.75;5071142;28;20081;-70
2022/10/18 02:10:47;;;;;;;0.40;0.40;;;;;;;8.21;89.53;101334.66;5060772;28;20075;-71
2022/10/18 02:13:17;;;;;;;0.65;0.65;;;;;;;8.18;89.70;101338.69;5066540;28;20029;-71
2022/10/18 02:15:47;;;;;;;0.85;0.70;;;;;;;8.12;90.31;101331.41;5079526;28;20588;-72
2022/10/18 02:18:21;;;;;;;0.52;0.52;;;;;;;8.10;90.26;101338.97;5074477;28;20032;-71
2022/10/18 02:20:47;;;;;;;0.47;0.38;;;;;;;8.06;90.13;101347.81;5074791;28;20105;-72
2022/10/18 02:23:15;;;;;;;0.75;0.55;;;;;;;8.00;90.27;101338.66;5077782;28;20029;-72
2022/10/18 02:25:41;;;;;;;0.63;0.55;;;;;;;7.95;90.80;101341.25;5069734;28;20028;-73
2022/10/18 02:28:06;;;;;;;0.30;0.30;;;;;;;7.88;90.83;101341.31;5035894;28;20062;-73
2022/10/18 02:30:52;;;;;;;0.40;0.40;;;;;;;7.88;90.57;101345.94;5059527;28;20040;-72
2022/10/18 02:33:33;;;;;;;0.70;0.50;;;;;;;7.75;90.66;101342.28;5047698;28;20045;-72
2022/10/18 02:36:05;;;;;;;0.68;0.50;;;;;;;7.75;90.90;101347.72;5063080;28;20085;-73
2022/10/18 02:38:31;;;;;;;0.32;0.32;;;;;;;7.77;90.89;101344.78;5062480;28;20024;-71
2022/10/18 02:40:57;;;;;;;0.30;0.30;;;;;;;7.82;91.07;101351.22;5066878;28;20049;-70
2022/10/18 02:43:24;;;;;;;0.40;0.40;;;;;;;7.82;91.08;101345.75;5056851;28;20036;-70
2022/10/18 02:45:52;;;;;;;0.47;0.47;;;;;;;7.89;91.10;101347.63;5041976;28;20021;-71
2022/10/18 02:48:17;;;;;;;0.52;0.50;;;;;;;7.97;90.98;101355.47;5052792;28;20029;-72
2022/10/18 02:50:43;;;;;;;0.57;0.57;;;;;;;7.99;90.48;101354.19;5067168;28;20036;-72
2022/10/18 02:53:08;;;;;;;0.82;0.57;;;;;;;8.05;91.22;101355.19;5030383;28;20029;-72
2022/10/18 02:55:33;;;;;;;0.85;0.60;;;;;;;8.10;90.06;101349.88;5048387;28;20021;-72
2022/10/18 02:58:01;;;;;;;1.13;1.05;;;;;;;8.11;90.69;101354.25;5067286;28;20021;-72
2022/10/18 03:00:36;;;;;;;0.52;0.52;;;;;;;8.14;90.83;101350.25;5058038;28;20529;-72
2022/10/18 03:03:02;;;;;;;1.02;0.70;;;;;;;8.15;90.48;101341.84;5051046;28;20017;-72
2022/10/18 03:05:27;;;;;;;0.47;0.47;;;;;;;8.18;90.61;101355.03;5072018;28;20063;-72
2022/10/18 03:07:57;;;;;;;0.55;0.55;;;;;;;8.16;90.58;101354.44;5080093;28;20097;-71
2022/10/18 03:10:23;;;;;;;1.42;0.60;;;;;;;8.18;90.40;101365.91;5057422;28;20029;-72
2022/10/18 03:13:09;;;;;;;0.80;0.80;;;;;;;8.09;90.61;101363.72;5029602;28;20012;-73
2022/10/18 03:15:35;;;;;;;0.65;0.65;;;;;;;8.11;90.65;101370.59;5057108;28;20061;-71
2022/10/18 03:18:00;;;;;;;0.70;0.60;;;;;;;8.10;90.47;101371.66;5062430;28;20442;-73
2022/10/18 03:20:26;;;;;;;1.50;1.02;;;;;;;8.00;91.10;101365.91;5058997;28;20081;-71
2022/10/18 03:22:51;;;;;;;1.10;0.90;;;;;;;7.96;90.95;101367.44;5065025;28;20090;-72
2022/10/18 03:25:17;;;;;;;1.13;0.90;;;;;;;7.94;91.43;101367.63;5051669;28;20033;-71
2022/10/18 03:27:42;;;;;;;1.50;1.13;;;;;;;7.94;91.31;101366.81;5059789;28;20164;-74
2022/10/18 03:30:10;;;;;;;1.17;0.98;;;;;;;7.90;91.15;101360.16;5043177;28;20039;-74
2022/10/18 03:32:36;;;;;;;0.65;0.63;;;;;;;7.90;91.04;101363.72;5062175;28;20028;-72
2022/10/18 03:35:03;;;;;;;1.45;0.93;;;;;;;7.92;90.79;101366.22;5055965;28;20025;-73
2022/10/18 03:37:31;;;;;;;1.50;0.98;;;;;;;7.90;91.37;101371.03;5065479;28;20048;-73
2022/10/18 03:39:56;;;;;;;1.83;1.00;;;;;;;7.81;90.65;101365.91;5069861;28;20060;-74
2022/10/18 03:42:25;;;;;;;0.95;0.90;;;;;;;7.85;90.81;101371.72;5060985;28;20104;-73
2022/10/18 03:44:50;;;;;;;1.10;0.80;;;;;;;7.82;91.40;101369.44;5055217;28;20040;-73
2022/10/18 03:47:16;;;;;;;0.93;0.70;;;;;;;7.80;91.06;101366.94;5064708;28;20131;-72
2022/10/18 03:50:04;;;;;;;0.70;0.70;;;;;;;7.84;91.25;101373.63;5063610;28;20037;-74
2022/10/18 03:52:30;;;;;;;0.70;0.70;;;;;;;7.87;91.13;101372.34;5062687;28;20032;-71
2022/10/18 03:54:55;;;;;;;1.05;0.93;;;;;;;7.72;91.11;101359.06;5063777;28;20093;-72
2022/10/18 03:57:21;;;;;;;1.42;0.85;;;;;;;7.77;91.57;101372.84;5041640;28;20036;-72
2022/10/18 03:59:47;;;;;;;1.00;0.70;;;;;;;7.73;91.58;101366.19;5053762;28;20036;-73
2022/10/18 04:02:13;;;;;;;0.77;0.60;;;;;;;7.64;91.02;101356.66;5060480;28;20040;-73
2022/10/18 04:04:38;;;;;;;1.50;1.00;;;;;;;7.65;91.02;101369.19;5077096;28;20033;-72
2022/10/18 04:07:11;;;;;;;0.70;0.70;;;;;;;7.50;91.58;101350.47;5057582;28;20024;-72
2022/10/18 04:09:37;;;;;;;0.60;0.60;;;;;;;7.57;91.60;101364.84;5056678;28;20033;-70
2022/10/18 04:12:02;;;;;;;1.02;0.80;;;;;;;7.57;91.51;101364.03;5057351;28;20041;-71
2022/10/18 04:14:28;;;;;;;0.80;0.57;;;;;;;7.53;91.16;101366.34;5062713;28;20051;-71
2022/10/18 04:16:53;;;;;;;0.68;0.68;;;;;;;7.46;91.88;101371.88;5054072;28;20024;-72
2022/10/18 04:19:33;;;;;;;0.63;0.63;;;;;;;7.34;92.07;101362.75;5074408;28;20052;-71
2022/10/18 04:21:59;;;;;;;1.08;0.85;;;;;;;7.23;92.35;101349.84;5051457;28;20033;-72
2022/10/18 04:24:24;;;;;;;0.85;0.60;;;;;;;7.36;91.96;101374.25;5053177;28;20033;-69
2022/10/18 04:26:50;;;;;;;0.77;0.77;;;;;;;7.33;91.84;101371.97;5070507;28;20191;-70
2022/10/18 04:29:16;;;;;;;0.70;0.70;;;;;;;7.30;91.88;101372.41;5069042;28;20021;-72
2022/10/18 04:31:46;;;;;;;1.75;0.63;;;;;;;7.32;91.46;101383.91;5046074;28;20036;-71
2022/10/18 04:34:14;;;;;;;1.10;0.63;;;;;;;7.24;91.21;101373.28;5054936;28;20406;-71
2022/10/18 04:36:47;;;;;;;0.50;0.50;;;;;;;7.26;91.69;101382.91;5056537;28;20028;-72
2022/10/18 04:39:12;;;;;;;0.85;0.65;;;;;;;7.32;91.66;101381.19;5062664;28;20067;-72
2022/10/18 04:41:56;;;;;;;0.90;0.60;;;;;;;7.28;91.88;101379.97;5055145;28;20052;-73
2022/10/18 04:44:21;;;;;;;0.90;0.90;;;;;;;7.39;91.44;101392.84;5059051;28;20730;-72
2022/10/18 04:46:47;;;;;;;0.60;0.60;;;;;;;7.39;91.32;101392.84;5027120;28;20021;-72
2022/10/18 04:49:13;;;;;;;0.68;0.60;;;;;;;7.34;91.34;101385.38;5045062;28;20051;-72
2022/10/18 04:51:38;;;;;;;0.68;0.68;;;;;;;7.38;91.16;101391.19;5060841;28;20395;-72
2022/10/18 04:54:04;;;;;;;0.85;0.60;;;;;;;7.34;91.51;101393.53;5076619;28;20036;-74
2022/10/18 04:56:31;;;;;;;1.00;0.80;;;;;;;7.32;91.67;101397.50;5053984;28;20029;-71
2022/10/18 04:58:57;;;;;;;0.60;0.52;;;;;;;7.26;92.08;101399.22;5055776;28;20025;-72
2022/10/18 05:01:23;;;;;;;0.68;0.68;;;;;;;7.25;91.50;101402.16;5043306;28;20035;-72
2022/10/18 05:03:53;;;;;;;0.75;0.70;;;;;;;7.22;91.81;101408.06;5055506;28;20025;-72
2022/10/18 05:06:18;;;;;;;0.65;0.60;;;;;;;7.18;92.20;101412.25;5067062;28;20037;-72
2022/10/18 05:08:47;;;;;;;0.60;0.60;;;;;;;7.12;92.29;101413.97;5052732;28;20094;-73
2022/10/18 05:11:13;;;;;;;0.77;0.77;;;;;;;7.03;92.58;101407.94;5069257;28;20047;-72
2022/10/18 05:13:38;;;;;;;0.68;0.63;;;;;;;7.08;92.46;101424.47;5061375;28;20045;-73
2022/10/18 05:16:06;;;;;;;0.60;0.60;;;;;;;7.07;91.90;101416.53;5059067;28;20035;-72
2022/10/18 05:18:32;;;;;;;0.50;0.50;;;;;;;7.09;91.69;101420.66;5072063;28;20548;-71
2022/10/18 05:20:57;;;;;;;0.80;0.70;;;;;;;7.15;92.14;101425.25;5061262;28;20040;-72
2022/10/18 05:23:23;;;;;;;0.63;0.60;;;;;;;7.18;92.36;101413.09;5059317;28;20067;-72
2022/10/18 05:25:49;;;;;;;1.02;0.90;;;;;;;7.31;92.25;101420.31;5072040;28;20021;-72
2022/10/18 05:28:15;;;;;;;0.60;0.60;;;;;;;7.33;91.93;101415.53;5042501;28;20020;-72
2022/10/18 05:30:40;;;;;;;0.95;0.80;;;;;;;7.26;92.06;101406.56;5054082;28;20035;-72
2022/10/18 05:33:06;;;;;;;0.68;0.68;;;;;;;7.24;91.60;101422.25;5041513;28;20029;-73
2022/10/18 05:35:33;;;;;;;1.13;0.60;;;;;;;7.14;91.12;101411.84;5055505;28;20025;-73
2022/10/18 05:38:02;;;;;;;0.50;0.50;;;;;;;7.14;91.84;101415.41;5056799;28;20033;-73
2022/10/18 05:40:27;;;;;;;1.05;0.70;;;;;;;7.12;92.31;101414.78;5046823;28;20056;-72
2022/10/18 05:42:52;;;;;;;0.70;0.70;;;;;;;7.09;91.98;101409.78;5042451;28;20029;-74
2022/10/18 05:45:18;;;;;;;1.10;0.70;;;;;;;7.01;91.45;101410.06;5043077;28;20502;-72
2022/10/18 05:47:43;;;;;;;0.88;0.80;;;;;;;6.94;92.46;101418.25;5059472;28;20045;-73
2022/10/18 05:50:09;;;;;;;0.98;0.70;;;;;;;6.90;91.83;101416.19;5060939;28;20025;-72
2022/10/18 05:52:34;;;;;;;0.43;0.43;;;;;;;6.81;92.13;101419.16;5059558;28;20053;-72
2022/10/18 05:55:00;;;;;;;0.70;0.70;;;;;;;6.73;92.59;101408.53;5077144;28;20037;-72
2022/10/18 05:57:29;;;;;;;0.60;0.50;;;;;;;6.64;92.91;101393.50;5046763;28;20086;-71
2022/10/18 05:59:55;;;;;;;0.60;0.60;;;;;;;6.75;92.31;101417.31;5055444;28;20055;-73
2022/10/18 06:02:20;;;;;;;0.68;0.50;;;;;;;6.76;93.11;101416.25;5035201;28;20475;-72
2022/10/18 06:04:45;;;;;;;0.60;0.52;;;;;;;6.76;92.80;101424.41;5054950;28;20039;-71
2022/10/18 06:07:14;;;;;;;0.60;0.60;;;;;;;6.71;92.46;101402.47;5071461;28;20582;-71
2022/10/18 06:09:40;;;;;;;0.88;0.50;;;;;;;6.85;92.68;101424.16;5053328;28;20035;-70
2022/10/18 06:12:07;;;;;;;0.77;0.70;;;;;;;6.87;91.66;101422.88;5068031;28;20034;-70
2022/10/18 06:14:33;;;;;;;0.70;0.70;;;;;;;6.89;92.30;101419.94;5046183;28;20033;-71
2022/10/18 06:16:59;;;;;;;0.77;0.75;;;;;;;6.89;91.70;101417.22;5065846;28;20036;-71
2022/10/18 06:19:24;;;;;;;0.80;0.80;;;;;;;6.93;92.39;101418.47;5067486;28;20025;-72
2022/10/18 06:22:16;;;;;;;0.90;0.82;;;;;;;6.89;92.08;101406.34;5057770;28;20339;-71
2022/10/18 06:24:38;;;;;;;0.93;0.70;;;;;;;6.95;91.38;101419.06;5056186;28;20041;-69
2022/10/18 06:27:08;;;;;;;0.40;0.40;;;;;;;6.93;91.42;101421.19;5059115;28;20046;-71
2022/10/18 06:29:38;;;;;;;0.50;0.50;;;;;;;6.89;91.82;101425.38;5038510;28;20029;-72
2022/10/18 06:32:05;;;;;;;1.20;0.60;;;;;;;6.89;91.44;101425.38;5061974;28;20037;-71
2022/10/18 06:34:33;;;;;;;0.98;0.77;;;;;;;6.90;91.77;101427.06;5050163;28;20438;-74
2022/10/18 06:37:01;;;;;;;1.10;0.68;;;;;;;6.84;91.34;101408.91;5040171;28;20025;-69
2022/10/18 06:39:27;;;;;;;0.60;0.60;;;;;;;6.98;91.52;101430.38;5063630;28;20028;-77
2022/10/18 06:41:53;;;;;;;0.40;0.40;;;;;;;6.97;91.91;101422.44;5040879;28;20060;-72
2022/10/18 06:44:19;;;;;;;0.50;0.40;;;;;;;7.07;92.24;101439.09;5056490;28;20047;-70
2022/10/18 06:46:46;;;;;;;0.47;0.47;;;;;;;7.06;91.60;101429.28;5068050;28;20025;-74
2022/10/18 06:49:13;;;;;;;0.30;0.30;;;;;;;7.07;92.23;101432.84;5077425;28;20020;-74
2022/10/18 06:51:40;;;;;;;0.60;0.47;;;;;;;7.06;91.91;101432.00;5057772;28;20039;-75
2022/10/18 06:54:05;;;;;;;0.40;0.40;;;;;;;7.10;92.40;101455.00;5053706;28;20025;-73
2022/10/18 06:56:32;;;;;;;0.40;0.40;;;;;;;7.03;91.89;101437.88;5045468;28;20111;-73
2022/10/18 06:58:58;;;;;;;0.40;0.40;;;;;;;7.11;92.47;101455.81;5071403;28;20035;-73
2022/10/18 07:01:32;;;;;;;0.60;0.40;;;;;;;7.05;93.00;101435.75;5046663;28;20033;-74
2022/10/18 07:03:58;;;;;;;0.93;0.60;;;;;;;7.25;92.40;101459.31;5055411;28;20029;-71
2022/10/18 07:06:24;;;;;;;1.40;0.50;;;;;;;7.32;92.21;101451.94;5048921;28;20459;-72
2022/10/18 07:08:52;;;;;;;0.47;0.47;;;;;;;7.43;92.21;101447.66;5068443;28;20093;-74
2022/10/18 07:11:22;;;;;;;0.60;0.50;;;;;;;7.54;91.67;101451.59;5049294;28;20044;-72
2022/10/18 07:13:55;;;;;;;0.35;0.35;;;;;;;7.58;91.69;101444.63;5083225;28;20031;-73
2022/10/18 07:16:21;;;;;;;0.50;0.30;;;;;;;7.75;91.18;101450.38;5053730;28;20351;-71
2022/10/18 07:18:48;;;;;;;1.48;0.50;;;;;;;7.88;90.84;101449.41;5084309;28;20090;-72
2022/10/18 07:21:16;;;;;;;0.50;0.40;;;;;;;8.00;90.92;101458.53;5060712;28;20064;-71
2022/10/18 07:23:45;;;;;;;0.50;0.50;;;;;;;8.11;90.60;101471.41;5060333;28;20032;-72
2022/10/18 07:26:32;;;;;;;0.43;0.43;;;;;;;8.25;89.89;101482.19;5041644;28;20475;-72
2022/10/18 07:29:07;;;;;;;0.43;0.40;;;;;;;8.33;89.73;101474.53;5060191;28;20603;-72
2022/10/18 07:31:33;;;;;;;0.30;0.30;;;;;;;8.48;89.68;101482.38;5059654;28;20123;-72
2022/10/18 07:33:59;;;;;;;0.20;0.20;;;;;;;8.67;89.97;101476.94;5055967;28;20023;-71
2022/10/18 07:36:25;;;;;;;0.50;0.50;;;;;;;8.88;88.97;101481.94;5069135;28;20172;-70
2022/10/18 07:38:54;;;;;;;0.20;0.20;;;;;;;8.98;87.93;101483.28;5040548;28;20045;-72
2022/10/18 07:41:20;;;;;;;0.90;0.50;;;;;;;9.04;87.87;101485.13;5066585;28;20056;-72
2022/10/18 07:43:49;;;;;;;0.45;0.40;;;;;;;9.22;87.30;101485.06;5062994;28;20067;-72
2022/10/18 07:46:15;;;;;;;0.50;0.38;;;;;;;9.58;86.62;101499.69;5065142;28;20032;-71
2022/10/18 07:48:41;;;;;;;0.60;0.40;;;;;;;9.94;85.07;101500.59;5074414;28;20033;-72
2022/10/18 07:51:07;;;;;;;0.80;0.50;;;;;;;10.33;84.34;101496.56;5055931;28;20028;-73
2022/10/18 07:53:33;;;;;;;0.88;0.43;;;;;;;10.78;82.36;101504.16;5062921;28;20047;-71
2022/10/18 07:56:05;;;;;;;0.30;0.30;;;;;;;11.28;80.79;101508.19;5078404;28;20021;-71
2022/10/18 07:58:31;;;;;;;0.40;0.40;;;;;;;11.66;78.75;101515.72;5057774;28;20033;-71
2022/10/18 08:01:01;;;;;;;0.40;0.40;;;;;;;11.90;77.46;101507.38;5059283;28;20024;-71
2022/10/18 08:03:26;;;;;;;0.60;0.43;;;;;;;12.23;76.03;101505.72;5051301;28;20037;-72
2022/10/18 08:05:54;;;;;;;0.40;0.40;;;;;;;12.61;75.17;101498.59;5042604;28;20095;-74
2022/10/18 08:08:21;;;;;;;0.60;0.50;;;;;;;12.98;73.70;101508.97;5045459;28;20047;-73
2022/10/18 08:10:47;;;;;;;2.05;0.68;;;;;;;13.23;72.33;101510.38;5046565;28;20391;-72
2022/10/18 08:13:13;;;;;;;0.57;0.47;;;;;;;13.59;71.60;101519.00;5026494;28;20025;-72
2022/10/18 08:15:38;;;;;;;0.68;0.68;;;;;;;13.83;70.25;101519.50;5066346;28;20516;-72
2022/10/18 08:18:03;;;;;;;0.60;0.45;;;;;;;14.17;69.96;101523.91;5057240;28;20032;-72
2022/10/18 08:20:30;;;;;;;1.00;0.50;;;;;;;14.66;68.77;101519.03;5065432;28;20102;-72
2022/10/18 08:22:56;;;;;;;0.52;0.43;;;;;;;15.16;67.80;101516.78;5051187;28;20045;-71
2022/10/18 08:25:21;;;;;;;0.30;0.30;;;;;;;15.82;66.19;101515.28;5058863;28;20032;-71
2022/10/18 08:27:47;;;;;;;0.52;0.47;;;;;;;16.30;64.39;101511.41;5070875;28;20119;-72
2022/10/18 08:30:13;;;;;;;0.30;0.30;;;;;;;16.96;63.50;101509.59;5057837;28;20061;-71
2022/10/18 08:32:38;;;;;;;0.30;0.30;;;;;;;18.03;60.50;101516.41;5055205;28;20078;-73
2022/10/18 08:35:04;;;;;;;0.60;0.20;;;;;;;19.05;58.39;101519.22;5040252;28;20025;-72
2022/10/18 08:37:29;;;;;;;0.30;0.30;;;;;;;19.99;55.61;101523.16;5034100;28;20044;-72
2022/10/18 08:39:55;;;;;;;0.70;0.35;;;;;;;20.45;54.49;101523.47;5070040;28;20069;-72
2022/10/18 08:42:35;;;;;;;1.15;0.40;;;;;;;21.04;53.24;101530.13;5034583;28;20037;-71
2022/10/18 08:45:04;;;;;;;0.38;0.30;;;;;;;21.83;51.85;101535.59;5082043;28;20108;-72
2022/10/18 08:47:36;;;;;;;0.63;0.40;;;;;;;22.43;50.49;101537.19;5072175;28;20029;-71
2022/10/18 08:50:20;;;;;;;0.75;0.40;;;;;;;23.44;48.53;101545.72;5074609;28;20020;-72
2022/10/18 08:53:17;;;;;;;1.00;0.47;;;;;;;24.96;45.56;101538.41;5076771;28;20112;-72
2022/10/18 08:55:53;;;;;;;0.63;0.20;;;;;;;26.51;42.28;101539.44;5079744;28;20323;-72
2022/10/18 08:58:25;;;;;;;0.20;0.20;;;;;;;27.49;40.54;101541.41;5073162;28;20035;-72
2022/10/18 09:01:15;;;;;;;0.30;0.30;;;;;;;28.90;38.06;101548.09;5052806;28;20115;-71
2022/10/18 09:04:03;;;;;;;0.75;0.20;;;;;;;30.76;35.78;101541.03;5069163;28;20029;-72
2022/10/18 09:06:31;;;;;;;0.77;0.40;;;;;;;32.41;33.05;101539.56;5056727;28;20099;-72
2022/10/18 09:09:41;;;;;;;1.13;0.47;;;;;;;33.68;31.89;101547.75;5079081;28;21299;-72
2022/10/18 09:12:12;;;;;;;0.40;0.40;;;;;;;35.10;29.55;101547.53;5081763;28;20017;-72
2022/10/18 09:15:03;;;;;;;0.30;0.20;;;;;;;36.64;28.00;101547.22;5076403;28;20070;-72
2022/10/18 09:17:28;;;;;;;0.30;0.30;;;;;;;37.79;26.47;101539.47;5064022;28;20028;-71
2022/10/18 09:20:15;;;;;;;1.00;0.20;;;;;;;38.71;25.69;101542.19;5069253;28;20059;-72
2022/10/18 09:22:51;;;;;;;0.43;0.30;;;;;;;39.44;24.61;101541.59;5068314;28;20127;-71
2022/10/18 09:25:23;;;;;;;0.38;0.38;;;;;;;40.36;23.39;101539.94;5058377;28;20071;-71
2022/10/18 09:27:55;;;;;;;0.25;0.20;;;;;;;40.94;22.86;101542.19;5071526;28;20047;-72
2022/10/18 09:30:55;;;;;;;0.20;0.20;;;;;;;41.50;22.30;101543.91;5064124;28;20032;-71
2022/10/18 09:33:23;;;;;;;0.20;0.20;;;;;;;42.17;21.56;101545.16;5069701;28;20082;-71
2022/10/18 09:35:55;;;;;;;0.20;0.20;;;;;;;42.76;21.47;101544.00;5081726;28;20074;-71
2022/10/18 09:38:25;;;;;;;1.23;0.43;;;;;;;43.17;20.23;101533.53;5076531;28;20028;-71
2022/10/18 09:41:08;;;;;;;0.55;0.30;;;;;;;43.69;19.73;101536.88;5057298;28;20049;-69
2022/10/18 09:43:55;;;;;;;1.48;0.65;;;;;;;44.16;19.02;101538.72;5059719;28;20040;-71
2022/10/18 09:46:25;;;;;;;0.40;0.30;;;;;;;44.29;18.44;101538.59;5070914;28;20021;-72
2022/10/18 09:48:54;;;;;;;1.25;0.45;;;;;;;44.85;18.25;101535.81;5049130;28;20058;-72
2022/10/18 09:51:25;;;;;;;0.35;0.30;;;;;;;45.64;17.60;101544.56;5050012;28;20037;-72
2022/10/18 09:54:04;;;;;;;1.13;0.50;;;;;;;45.95;16.83;101536.94;5055499;28;20032;-72
2022/10/18 09:57:16;;;;;;;0.32;0.30;;;;;;;46.42;16.58;101534.59;5060917;28;20025;-71
2022/10/18 09:59:46;;;;;;;1.63;0.60;;;;;;;46.78;15.53;101532.75;5044093;28;20043;-72
2022/10/18 10:02:15;;;;;;;0.80;0.40;;;;;;;47.15;15.47;101536.09;5057066;28;20025;-71
2022/10/18 10:04:40;;;;;;;0.65;0.40;;;;;;;47.44;15.42;101527.97;5057460;28;20029;-72
2022/10/18 10:07:10;;;;;;;1.52;0.50;;;;;;;48.14;14.90;101521.47;5055617;28;20749;-72
2022/10/18 10:09:43;;;;;;;2.65;0.30;;;;;;;48.62;14.74;101523.16;5060844;28;20037;-71
2022/10/18 10:12:28;;;;;;;0.85;0.40;;;;;;;49.16;14.73;101527.72;5056291;28;20580;-71
2022/10/18 10:14:54;;;;;;;1.23;0.40;;;;;;;49.30;13.95;101520.22;5058862;28;20115;-72
2022/10/18 10:17:23;;;;;;;1.85;0.50;;;;;;;49.16;13.90;101521.91;5060685;28;20052;-70
2022/10/18 10:20:13;;;;;;;0.45;0.38;;;;;;;49.72;13.84;101527.44;5067981;28;20048;-72
2022/10/18 10:22:41;;;;;;;1.27;0.40;;;;;;;50.29;13.16;101528.63;5074048;28;20071;-71
2022/10/18 10:25:18;;;;;;;1.27;0.40;;;;;;;50.32;13.24;101523.88;5055854;28;20032;-71
2022/10/18 10:27:44;;;;;;;1.08;0.63;;;;;;;50.61;12.66;101519.75;5075511;28;20035;-72
2022/10/18 10:30:21;;;;;;;1.27;0.70;;;;;;;50.92;12.52;101518.00;5058026;28;20384;-72
2022/10/18 10:32:49;;;;;;;0.32;0.30;;;;;;;51.11;12.54;101515.41;5059333;28;20111;-72
2022/10/18 10:35:32;;;;;;;0.43;0.25;;;;;;;51.35;12.62;101517.84;5059713;28;20113;-71
2022/10/18 10:38:01;;;;;;;0.85;0.40;;;;;;;51.73;12.38;101506.69;5040906;28;20130;-73
2022/10/18 10:40:49;;;;;;;4.75;0.82;;;;;;;51.96;12.00;101513.28;5048906;28;20024;-73
2022/10/18 10:43:17;;;;;;;1.90;0.40;;;;;;;52.03;11.49;101517.78;5071061;28;20024;-72
2022/10/18 10:46:01;;;;;;;0.75;0.40;;;;;;;51.66;10.91;101513.84;5062882;28;20047;-73
2022/10/18 10:48:31;;;;;;;1.55;0.75;;;;;;;51.79;10.90;101519.13;5054843;28;20080;-72
2022/10/18 10:51:07;;;;;;;0.77;0.40;;;;;;;51.63;11.07;101525.75;5082676;28;20028;-71
2022/10/18 10:54:00;;;;;;;2.08;0.77;;;;;;;51.54;11.02;101523.09;5062812;28;20025;-73
2022/10/18 10:56:28;;;;;;;0.80;0.40;;;;;;;51.74;10.30;101519.13;5071098;28;20031;-72
2022/10/18 10:58:57;;;;;;;1.65;0.60;;;;;;;51.77;9.47;101524.72;5082398;28;20025;-73
2022/10/18 11:01:29;;;;;;;2.05;0.60;;;;;;;51.46;8.97;101514.91;5065669;28;20037;-72
2022/10/18 11:03:57;;;;;;;1.75;0.60;;;;;;;51.34;9.05;101522.06;5061352;28;20027;-73
2022/10/18 11:06:45;;;;;;;1.35;0.60;;;;;;;51.07;8.43;101515.69;5079703;28;20535;-74
2022/10/18 11:09:42;;;;;;;3.35;0.75;;;;;;;49.84;8.77;101507.97;5061732;28;20059;-72
2022/10/18 11:12:20;;;;;;;3.55;0.70;;;;;;;49.19;9.29;101501.38;5060456;28;20090;-72
2022/10/18 11:14:53;;;;;;;2.33;0.60;;;;;;;50.15;9.28;101495.50;5092344;28;20017;-72
2022/10/18 11:17:42;;;;;;;1.90;0.77;;;;;;;50.27;8.56;101499.28;5080319;28;20096;-72
2022/10/18 11:20:11;;;;;;;1.27;0.65;;;;;;;51.23;8.55;101504.56;5084558;28;20020;-73
2022/10/18 11:22:44;;;;;;;3.65;0.60;;;;;;;52.03;8.69;101503.19;5084605;28;20071;-73
2022/10/18 11:25:15;;;;;;;1.00;0.55;;;;;;;52.08;8.15;101501.56;5066509;28;20031;-72
2022/10/18 11:28:04;;;;;;;2.92;0.85;;;;;;;50.80;7.75;101502.63;5065473;28;20024;-73
2022/10/18 11:30:57;;;;;;;3.72;0.63;;;;;;;50.84;8.53;101497.34;5065705;28;20035;-72
2022/10/18 11:33:46;;;;;;;4.15;0.70;;;;;;;51.37;8.00;101486.06;5064460;28;20028;-72
2022/10/18 11:36:23;;;;;;;6.45;0.70;;;;;;;50.65;8.24;101479.59;5085573;28;20039;-72
2022/10/18 11:39:07;;;;;;;2.10;0.77;;;;;;;50.11;8.55;101474.59;5081046;28;20119;-71
2022/10/18 11:42:01;;;;;;;1.30;0.50;;;;;;;51.33;8.99;101468.03;5081493;28;20052;-72
2022/10/18 11:44:33;;;;;;;1.73;0.80;;;;;;;51.78;8.04;101464.28;5078250;28;20444;-72
2022/10/18 11:47:35;;;;;;;3.30;1.00;;;;;;;52.02;7.56;101463.72;5074503;28;20079;-71
2022/10/18 11:50:12;;;;;;;2.15;0.90;;;;;;;52.15;8.14;101466.03;5050563;28;20028;-73